Airport ID:KN38
Update Time (UTC):10/12/2019 06:28
Wind Speed (Knots):8
Wind Direction (Magnetic):220
Temperature (°C):6
Dew Point (°C):6
Humidity (%):100
Altimeter (inHg):29.58
Density Altitude (Feet):
Visibility (Miles):< 1/4
Clouds (Hundreds of feet):OVC002
Present Weather:FG
METAR:METAR KN38 100625Z AUTO 20008KT M1/4SM FG OVC002 06/06 A2958 RMK AO2

The data displayed is for advisory purposes only and is not to be used for flight planning or operations.

This page is not automatically refreshed. Reload the page to see current data.